Time;durP1;ratioP1;P1;durP2;ratioP2;P2;SDS_P1;SDS_P2;PMS_P1;PMS_P2;Temp;Humidity;BMP_temperature;BMP_pressure;BME280_temperature;BME280_humidity;BME280_pressure;Samples;Min_cycle;Max_cycle;Signal;HPM_P1;HPM_P2
2021/03/13 00:00:44;;;;;;;41.10;6.32;;;;;;;;;;5043189;28;20444;-78
2021/03/13 00:03:11;;;;;;;40.15;7.00;;;;;;;;;;5037896;28;20412;-79
2021/03/13 00:05:38;;;;;;;37.00;6.10;;;;;;;;;;5032272;28;20405;-78
2021/03/13 00:08:06;;;;;;;37.50;6.57;;;;;;;;;;5038718;28;20044;-79
2021/03/13 00:10:32;;;;;;;40.03;5.93;;;;;;;;;;5035923;28;20037;-79
2021/03/13 00:12:58;;;;;;;32.30;5.93;;;;;;;;;;5030516;28;20072;-79
2021/03/13 00:15:25;;;;;;;51.33;5.97;;;;;;;;;;5035453;28;20098;-79
2021/03/13 00:17:52;;;;;;;48.22;5.15;;;;;;;;;;5034437;28;20096;-79
2021/03/13 00:20:22;;;;;;;37.60;6.43;;;;;;;;;;5035836;28;20057;-79
2021/03/13 00:22:48;;;;;;;36.40;6.20;;;;;;;;;;5036386;28;20053;-78
2021/03/13 00:25:14;;;;;;;34.72;5.47;;;;;;;;;;5039873;28;20396;-78
2021/03/13 00:27:46;;;;;;;34.80;4.95;;;;;;;;;;5035387;28;20424;-79
2021/03/13 00:30:14;;;;;;;38.25;5.18;;;;;;;;;;5026568;28;20041;-78
2021/03/13 00:32:40;;;;;;;40.30;6.18;;;;;;;;;;5025263;28;20053;-78
2021/03/13 00:35:07;;;;;;;38.33;5.57;;;;;;;;;;5029652;28;20519;-79
2021/03/13 00:37:33;;;;;;;31.27;5.20;;;;;;;;;;5035624;28;20728;-79
2021/03/13 00:39:59;;;;;;;41.72;5.20;;;;;;;;;;5027224;28;20037;-78
2021/03/13 00:42:26;;;;;;;32.95;4.93;;;;;;;;;;5032188;28;20057;-79
2021/03/13 00:44:52;;;;;;;26.33;5.25;;;;;;;;;;5038251;28;20107;-78
2021/03/13 00:47:18;;;;;;;31.70;5.60;;;;;;;;;;5037186;28;20045;-78
2021/03/13 00:49:45;;;;;;;34.08;5.85;;;;;;;;;;5041560;28;20071;-79
2021/03/13 00:52:11;;;;;;;31.35;4.60;;;;;;;;;;5032813;28;20041;-78
2021/03/13 00:54:37;;;;;;;26.25;3.90;;;;;;;;;;5033787;28;20060;-79
2021/03/13 00:57:04;;;;;;;35.70;4.45;;;;;;;;;;5036036;28;20080;-78
2021/03/13 00:59:30;;;;;;;29.08;4.38;;;;;;;;;;5034858;28;20048;-79
2021/03/13 01:01:57;;;;;;;27.70;4.28;;;;;;;;;;5044542;28;20069;-78
2021/03/13 01:04:24;;;;;;;30.38;4.72;;;;;;;;;;5041151;28;20048;-79
2021/03/13 01:06:50;;;;;;;29.75;5.28;;;;;;;;;;5044946;28;20041;-78
2021/03/13 01:09:17;;;;;;;32.63;4.55;;;;;;;;;;5048724;28;20055;-78
2021/03/13 01:11:43;;;;;;;27.95;4.75;;;;;;;;;;5044997;28;20049;-79
2021/03/13 01:14:10;;;;;;;28.95;3.92;;;;;;;;;;5034039;28;20037;-79
2021/03/13 01:16:36;;;;;;;28.08;4.13;;;;;;;;;;5032853;28;20487;-79
2021/03/13 01:19:03;;;;;;;30.75;5.32;;;;;;;;;;5034050;28;20057;-79
2021/03/13 01:21:30;;;;;;;27.40;3.95;;;;;;;;;;5033984;28;20523;-78
2021/03/13 01:23:56;;;;;;;18.30;4.38;;;;;;;;;;5042018;28;20052;-78
2021/03/13 01:26:23;;;;;;;25.25;4.10;;;;;;;;;;5042785;28;20040;-78
2021/03/13 01:28:49;;;;;;;23.55;3.75;;;;;;;;;;5037740;28;20477;-79
2021/03/13 01:31:15;;;;;;;24.05;4.68;;;;;;;;;;5040029;28;20037;-79
2021/03/13 01:33:42;;;;;;;28.42;4.00;;;;;;;;;;5041712;28;20477;-79
2021/03/13 01:36:08;;;;;;;33.50;4.18;;;;;;;;;;5040885;28;20047;-78
2021/03/13 01:38:34;;;;;;;28.10;4.53;;;;;;;;;;5030249;28;20052;-78
2021/03/13 01:41:01;;;;;;;29.45;4.95;;;;;;;;;;5031350;28;20069;-78
2021/03/13 01:43:27;;;;;;;41.38;5.45;;;;;;;;;;5036847;28;20095;-78
2021/03/13 01:45:53;;;;;;;40.72;6.88;;;;;;;;;;5039628;28;20053;-78
2021/03/13 01:48:22;;;;;;;40.08;6.85;;;;;;;;;;5039743;28;20125;-78
2021/03/13 01:50:49;;;;;;;47.55;9.25;;;;;;;;;;5038097;28;20571;-79
2021/03/13 01:53:15;;;;;;;44.60;9.70;;;;;;;;;;5041272;28;20037;-79
2021/03/13 01:55:42;;;;;;;67.57;9.82;;;;;;;;;;5044905;28;20505;-79
2021/03/13 01:58:08;;;;;;;56.25;10.20;;;;;;;;;;5044252;28;20136;-79
2021/03/13 02:00:34;;;;;;;48.70;9.05;;;;;;;;;;5041661;28;20076;-78
2021/03/13 02:03:01;;;;;;;37.20;8.82;;;;;;;;;;5040063;28;20049;-79
2021/03/13 02:05:29;;;;;;;47.83;9.60;;;;;;;;;;5038439;28;20123;-78
2021/03/13 02:08:05;;;;;;;42.58;8.65;;;;;;;;;;5032364;28;20053;-79
2021/03/13 02:10:37;;;;;;;48.72;9.10;;;;;;;;;;5034190;28;20038;-79
2021/03/13 02:13:06;;;;;;;35.08;7.68;;;;;;;;;;5035427;28;20451;-78
2021/03/13 02:15:37;;;;;;;42.70;11.35;;;;;;;;;;5041353;28;20033;-79
2021/03/13 02:18:19;;;;;;;54.90;11.55;;;;;;;;;;5043118;28;20135;-79
2021/03/13 02:20:46;;;;;;;41.38;8.35;;;;;;;;;;5040702;28;20071;-79
2021/03/13 02:23:14;;;;;;;44.10;10.68;;;;;;;;;;5035901;28;20472;-79
2021/03/13 02:26:00;;;;;;;38.90;9.38;;;;;;;;;;5045538;28;20049;-79
2021/03/13 02:28:31;;;;;;;42.63;9.98;;;;;;;;;;5045896;28;20091;-78
2021/03/13 02:30:58;;;;;;;34.65;8.85;;;;;;;;;;5041953;28;20450;-79
2021/03/13 02:33:27;;;;;;;37.85;9.60;;;;;;;;;;5038181;28;20140;-79
2021/03/13 02:35:57;;;;;;;40.60;9.98;;;;;;;;;;5031335;28;20081;-78
2021/03/13 02:38:30;;;;;;;36.17;8.75;;;;;;;;;;5029952;28;20037;-78
2021/03/13 02:40:58;;;;;;;30.52;8.93;;;;;;;;;;5033501;28;20052;-78
2021/03/13 02:43:26;;;;;;;38.00;11.95;;;;;;;;;;5031224;28;20136;-78
2021/03/13 02:45:55;;;;;;;36.13;9.00;;;;;;;;;;5039225;28;20390;-78
2021/03/13 02:48:21;;;;;;;30.42;8.93;;;;;;;;;;5037994;28;20037;-78
2021/03/13 02:50:48;;;;;;;31.77;8.55;;;;;;;;;;5036194;28;20114;-79
2021/03/13 02:53:16;;;;;;;31.35;7.78;;;;;;;;;;5042139;28;20124;-79
2021/03/13 02:55:43;;;;;;;37.00;6.85;;;;;;;;;;5045375;28;20053;-78
2021/03/13 02:58:10;;;;;;;33.28;8.23;;;;;;;;;;5041871;28;20404;-78
2021/03/13 03:00:38;;;;;;;25.75;6.05;;;;;;;;;;5044649;28;20041;-79
2021/03/13 03:03:05;;;;;;;26.95;6.88;;;;;;;;;;5045385;28;20033;-78
2021/03/13 03:05:31;;;;;;;22.50;6.55;;;;;;;;;;5046309;28;20045;-78
2021/03/13 03:08:01;;;;;;;24.65;6.72;;;;;;;;;;5049493;28;20045;-79
2021/03/13 03:10:28;;;;;;;24.40;5.45;;;;;;;;;;5043172;28;20524;-77
2021/03/13 03:12:55;;;;;;;23.58;6.10;;;;;;;;;;5041215;28;20136;-78
2021/03/13 03:15:23;;;;;;;18.00;5.68;;;;;;;;;;5040280;28;20361;-78
2021/03/13 03:17:50;;;;;;;18.85;5.38;;;;;;;;;;5040873;28;20060;-78
2021/03/13 03:20:18;;;;;;;21.25;5.90;;;;;;;;;;5040079;28;20065;-78
2021/03/13 03:22:45;;;;;;;26.02;6.45;;;;;;;;;;5035693;28;20128;-78
2021/03/13 03:25:11;;;;;;;19.85;6.65;;;;;;;;;;5045498;28;20126;-77
2021/03/13 03:27:49;;;;;;;21.92;6.55;;;;;;;;;;5040344;28;20038;-79
2021/03/13 03:30:18;;;;;;;22.15;7.65;;;;;;;;;;5034784;28;20045;-77
2021/03/13 03:32:45;;;;;;;19.10;6.60;;;;;;;;;;5034795;28;20044;-78
2021/03/13 03:35:11;;;;;;;23.17;8.05;;;;;;;;;;5041339;28;20126;-78
2021/03/13 03:37:38;;;;;;;22.60;7.45;;;;;;;;;;5042157;28;20044;-78
2021/03/13 03:40:05;;;;;;;24.13;7.28;;;;;;;;;;5045393;28;20037;-78
2021/03/13 03:42:32;;;;;;;22.88;8.25;;;;;;;;;;5047869;28;20068;-78
2021/03/13 03:44:59;;;;;;;24.10;7.65;;;;;;;;;;5038339;28;20080;-78
2021/03/13 03:47:25;;;;;;;28.42;10.00;;;;;;;;;;5038279;28;20055;-78
2021/03/13 03:49:53;;;;;;;29.58;10.32;;;;;;;;;;5043013;28;20045;-78
2021/03/13 03:52:19;;;;;;;24.48;8.88;;;;;;;;;;5045224;28;20041;-78
2021/03/13 03:54:46;;;;;;;18.42;6.85;;;;;;;;;;5045959;28;20102;-77
2021/03/13 03:57:14;;;;;;;11.30;4.03;;;;;;;;;;5044414;28;20057;-77
2021/03/13 03:59:42;;;;;;;17.08;6.45;;;;;;;;;;5040885;28;20048;-76
2021/03/13 04:02:08;;;;;;;22.67;7.70;;;;;;;;;;5039881;28;20049;-78
2021/03/13 04:04:35;;;;;;;13.05;5.25;;;;;;;;;;5043702;28;20049;-77
2021/03/13 04:07:03;;;;;;;17.33;6.72;;;;;;;;;;5033628;28;20045;-76
2021/03/13 04:09:30;;;;;;;16.20;6.32;;;;;;;;;;5039770;28;20044;-77
2021/03/13 04:11:57;;;;;;;17.42;7.18;;;;;;;;;;5039898;28;20063;-77
2021/03/13 04:14:24;;;;;;;9.75;5.40;;;;;;;;;;5040499;28;20045;-76
2021/03/13 04:16:50;;;;;;;18.20;5.80;;;;;;;;;;5044293;28;20044;-76
2021/03/13 04:19:17;;;;;;;12.93;5.65;;;;;;;;;;5047280;28;20473;-76
2021/03/13 04:21:43;;;;;;;11.35;5.80;;;;;;;;;;5044292;28;20405;-76
2021/03/13 04:24:12;;;;;;;13.68;6.47;;;;;;;;;;5037298;28;20477;-76
2021/03/13 04:26:39;;;;;;;14.43;6.53;;;;;;;;;;5037742;28;20038;-76
2021/03/13 04:29:05;;;;;;;13.30;6.97;;;;;;;;;;5038879;28;20041;-75
2021/03/13 04:31:33;;;;;;;18.17;7.28;;;;;;;;;;5018023;28;20048;-75
2021/03/13 04:34:01;;;;;;;14.57;6.88;;;;;;;;;;5030348;28;20057;-75
2021/03/13 04:36:28;;;;;;;20.05;8.27;;;;;;;;;;5031105;28;20536;-76
2021/03/13 04:38:55;;;;;;;15.65;7.80;;;;;;;;;;5041817;28;20546;-76
2021/03/13 04:41:23;;;;;;;19.73;7.95;;;;;;;;;;5042314;28;20469;-75
2021/03/13 04:43:49;;;;;;;19.05;8.40;;;;;;;;;;5037337;28;20090;-76
2021/03/13 04:46:16;;;;;;;19.02;8.50;;;;;;;;;;5040799;28;20056;-75
2021/03/13 04:48:42;;;;;;;17.80;8.93;;;;;;;;;;5045822;28;20046;-76
2021/03/13 04:51:09;;;;;;;18.52;9.23;;;;;;;;;;5040773;28;20045;-76
2021/03/13 04:53:35;;;;;;;20.10;9.13;;;;;;;;;;5037245;28;20038;-76
2021/03/13 04:56:02;;;;;;;23.75;11.45;;;;;;;;;;5041050;28;20370;-76
2021/03/13 04:58:29;;;;;;;18.02;9.55;;;;;;;;;;5038499;28;20050;-75
2021/03/13 05:00:56;;;;;;;17.00;9.77;;;;;;;;;;5031748;28;20045;-75
2021/03/13 05:03:22;;;;;;;21.90;10.32;;;;;;;;;;5042372;28;20051;-76
2021/03/13 05:05:48;;;;;;;19.73;9.77;;;;;;;;;;5041218;28;20716;-75
2021/03/13 05:08:15;;;;;;;22.27;9.20;;;;;;;;;;5034066;28;20037;-76
2021/03/13 05:10:41;;;;;;;17.02;9.10;;;;;;;;;;5039826;28;20041;-76
2021/03/13 05:13:07;;;;;;;20.17;9.30;;;;;;;;;;5041927;28;20037;-76
2021/03/13 05:15:33;;;;;;;21.20;8.63;;;;;;;;;;5042012;28;20504;-77
2021/03/13 05:18:00;;;;;;;14.73;8.52;;;;;;;;;;5055533;28;20048;-76
2021/03/13 05:20:26;;;;;;;16.58;8.65;;;;;;;;;;5043818;28;20037;-77
2021/03/13 05:22:53;;;;;;;19.83;9.25;;;;;;;;;;5035688;28;20440;-76
2021/03/13 05:25:19;;;;;;;17.92;9.88;;;;;;;;;;5033969;28;20372;-76
2021/03/13 05:27:45;;;;;;;19.33;9.63;;;;;;;;;;5043774;28;20044;-76
2021/03/13 05:30:12;;;;;;;16.30;9.18;;;;;;;;;;5038983;28;20508;-76
2021/03/13 05:32:38;;;;;;;18.95;8.93;;;;;;;;;;5042343;28;20046;-76
2021/03/13 05:35:05;;;;;;;14.90;7.15;;;;;;;;;;5038187;28;20481;-77
2021/03/13 05:37:32;;;;;;;17.63;9.30;;;;;;;;;;5038711;28;20041;-76
2021/03/13 05:39:58;;;;;;;16.80;8.40;;;;;;;;;;5036275;28;20038;-75
2021/03/13 05:42:24;;;;;;;20.98;9.00;;;;;;;;;;5035597;28;20068;-76
2021/03/13 05:44:54;;;;;;;13.13;7.70;;;;;;;;;;5043779;28;20114;-76
2021/03/13 05:47:20;;;;;;;14.35;8.07;;;;;;;;;;5040482;28;20386;-77
2021/03/13 05:49:54;;;;;;;17.15;8.45;;;;;;;;;;5039733;28;20045;-77
2021/03/13 05:52:22;;;;;;;15.73;8.05;;;;;;;;;;5039997;28;20052;-76
2021/03/13 05:54:51;;;;;;;15.13;8.07;;;;;;;;;;5040997;28;20166;-76
2021/03/13 05:57:18;;;;;;;16.17;8.30;;;;;;;;;;5044663;28;20459;-77
2021/03/13 05:59:44;;;;;;;18.70;8.43;;;;;;;;;;5040558;28;20060;-76
2021/03/13 06:02:11;;;;;;;18.23;8.85;;;;;;;;;;5042531;28;20045;-79
2021/03/13 06:04:37;;;;;;;12.95;8.05;;;;;;;;;;5036200;28;20045;-77
2021/03/13 06:07:03;;;;;;;17.67;8.27;;;;;;;;;;5033149;28;20469;-76
2021/03/13 06:09:30;;;;;;;14.82;7.47;;;;;;;;;;5042060;28;20357;-77
2021/03/13 06:11:56;;;;;;;14.82;6.97;;;;;;;;;;5036382;28;20185;-76
2021/03/13 06:14:23;;;;;;;14.38;6.45;;;;;;;;;;5034846;28;20096;-77
2021/03/13 06:16:49;;;;;;;14.38;6.88;;;;;;;;;;5036921;28;20071;-77
2021/03/13 06:19:15;;;;;;;19.02;8.18;;;;;;;;;;5037199;28;20485;-76
2021/03/13 06:21:42;;;;;;;17.88;6.72;;;;;;;;;;5042157;28;20067;-76
2021/03/13 06:24:08;;;;;;;14.65;6.88;;;;;;;;;;5040411;28;20443;-77
2021/03/13 06:26:50;;;;;;;15.18;6.10;;;;;;;;;;5039667;28;20049;-76
2021/03/13 06:29:17;;;;;;;15.73;5.30;;;;;;;;;;5039138;28;20041;-76
2021/03/13 06:31:43;;;;;;;10.02;3.22;;;;;;;;;;5030170;28;20038;-75
2021/03/13 06:34:25;;;;;;;17.05;3.40;;;;;;;;;;5025177;28;20500;-76
2021/03/13 06:36:53;;;;;;;14.32;3.80;;;;;;;;;;5027418;28;20045;-77
2021/03/13 06:39:37;;;;;;;16.25;3.30;;;;;;;;;;5039400;28;20097;-77
2021/03/13 06:42:18;;;;;;;22.98;3.45;;;;;;;;;;5037612;28;20079;-76
2021/03/13 06:44:59;;;;;;;14.68;2.15;;;;;;;;;;5045980;28;20064;-76
2021/03/13 06:47:31;;;;;;;13.40;2.45;;;;;;;;;;5044159;28;20128;-76
2021/03/13 06:50:12;;;;;;;10.95;2.15;;;;;;;;;;5036649;28;20045;-75
2021/03/13 06:52:39;;;;;;;13.10;1.67;;;;;;;;;;5049688;28;20120;-75
2021/03/13 06:55:06;;;;;;;6.78;1.20;;;;;;;;;;5053535;28;20037;-76
2021/03/13 06:57:33;;;;;;;11.32;2.00;;;;;;;;;;5052695;28;20080;-76
2021/03/13 07:00:01;;;;;;;15.48;2.42;;;;;;;;;;5053381;28;20045;-76
2021/03/13 07:02:28;;;;;;;13.00;1.60;;;;;;;;;;5050942;28;20089;-76
2021/03/13 07:05:07;;;;;;;13.80;1.65;;;;;;;;;;5045187;28;20208;-75
2021/03/13 07:07:33;;;;;;;13.02;2.00;;;;;;;;;;5031698;28;20056;-76
2021/03/13 07:10:02;;;;;;;9.68;1.70;;;;;;;;;;5044830;28;20084;-73
2021/03/13 07:12:31;;;;;;;12.70;2.70;;;;;;;;;;5032077;28;20033;-74
2021/03/13 07:15:13;;;;;;;8.70;1.77;;;;;;;;;;5039116;28;20045;-73
2021/03/13 07:17:41;;;;;;;8.70;2.03;;;;;;;;;;5041447;28;20041;-74
2021/03/13 07:20:08;;;;;;;11.20;1.90;;;;;;;;;;5041258;28;20135;-75
2021/03/13 07:22:35;;;;;;;16.08;3.35;;;;;;;;;;5039350;28;20116;-74
2021/03/13 07:25:02;;;;;;;16.38;2.55;;;;;;;;;;5037402;28;20044;-75
2021/03/13 07:27:30;;;;;;;15.70;4.18;;;;;;;;;;5041104;28;20037;-74
2021/03/13 07:29:58;;;;;;;10.05;2.20;;;;;;;;;;5043526;28;20144;-74
2021/03/13 07:32:25;;;;;;;22.38;3.05;;;;;;;;;;5039553;28;20045;-74
2021/03/13 07:34:56;;;;;;;22.27;3.22;;;;;;;;;;5034959;28;20037;-73
2021/03/13 07:37:23;;;;;;;17.17;3.05;;;;;;;;;;5031419;28;20128;-74
2021/03/13 07:39:51;;;;;;;28.35;4.10;;;;;;;;;;5050038;28;20503;-74
2021/03/13 07:42:20;;;;;;;26.60;3.85;;;;;;;;;;5037149;28;20445;-75
2021/03/13 07:44:47;;;;;;;28.75;5.72;;;;;;;;;;5044305;28;20148;-75
2021/03/13 07:47:15;;;;;;;33.88;4.72;;;;;;;;;;5039340;28;20052;-74
2021/03/13 07:49:42;;;;;;;30.05;6.20;;;;;;;;;;5049786;28;20049;-74
2021/03/13 07:52:09;;;;;;;30.55;4.32;;;;;;;;;;5042600;28;20037;-76
2021/03/13 07:54:37;;;;;;;22.33;3.63;;;;;;;;;;5044201;28;20483;-77
2021/03/13 07:57:05;;;;;;;21.33;3.95;;;;;;;;;;5042381;28;20045;-77
2021/03/13 07:59:43;;;;;;;30.48;4.47;;;;;;;;;;5041311;28;20128;-81
2021/03/13 08:02:30;;;;;;;27.50;4.72;;;;;;;;;;5041518;28;20122;-86
2021/03/13 08:04:57;;;;;;;22.60;3.88;;;;;;;;;;5039465;28;20116;-73
2021/03/13 08:07:24;;;;;;;25.98;3.60;;;;;;;;;;5060088;28;20041;-79
2021/03/13 08:09:51;;;;;;;31.70;4.82;;;;;;;;;;5044969;28;20083;-79
2021/03/13 08:12:35;;;;;;;20.52;4.30;;;;;;;;;;5041881;28;20040;-79
2021/03/13 08:15:02;;;;;;;24.38;5.78;;;;;;;;;;5038581;28;20477;-78
2021/03/13 08:17:39;;;;;;;22.00;3.47;;;;;;;;;;5044034;28;20045;-78
2021/03/13 08:20:06;;;;;;;23.60;3.78;;;;;;;;;;5046781;28;20049;-80
2021/03/13 08:22:32;;;;;;;24.50;3.97;;;;;;;;;;5041425;28;20409;-78
2021/03/13 08:24:59;;;;;;;26.58;4.07;;;;;;;;;;5045310;28;20048;-78
2021/03/13 08:27:38;;;;;;;23.75;4.60;;;;;;;;;;5045049;28;20496;-78
2021/03/13 08:30:16;;;;;;;23.75;3.65;;;;;;;;;;5044460;28;20128;-78
2021/03/13 08:32:59;;;;;;;25.27;4.05;;;;;;;;;;5038316;28;20056;-78
2021/03/13 08:35:31;;;;;;;23.40;5.28;;;;;;;;;;5038936;28;20053;-79
2021/03/13 08:37:58;;;;;;;28.67;5.68;;;;;;;;;;5044894;28;20121;-79
2021/03/13 08:40:25;;;;;;;24.77;4.82;;;;;;;;;;5043088;28;20048;-79
2021/03/13 08:42:52;;;;;;;25.70;5.95;;;;;;;;;;5041237;28;20045;-78
2021/03/13 08:45:19;;;;;;;28.88;3.97;;;;;;;;;;5040140;28;20380;-79
2021/03/13 08:47:51;;;;;;;24.25;4.60;;;;;;;;;;5044221;28;20044;-78
2021/03/13 08:50:36;;;;;;;21.05;3.83;;;;;;;;;;5033035;28;20057;-79
2021/03/13 08:53:21;;;;;;;23.55;4.57;;;;;;;;;;5044834;28;20041;-76
2021/03/13 08:55:48;;;;;;;20.60;3.88;;;;;;;;;;5042581;28;20064;-76
2021/03/13 08:58:29;;;;;;;23.05;5.30;;;;;;;;;;5044915;28;20056;-79
2021/03/13 09:00:56;;;;;;;24.50;4.90;;;;;;;;;;5042041;28;20103;-80
2021/03/13 09:03:22;;;;;;;28.65;5.75;;;;;;;;;;5040710;28;20396;-79
2021/03/13 09:05:49;;;;;;;27.10;4.95;;;;;;;;;;5045501;28;20055;-79
2021/03/13 09:08:19;;;;;;;24.50;4.75;;;;;;;;;;5039713;28;20090;-81
2021/03/13 09:10:45;;;;;;;23.13;3.22;;;;;;;;;;5042875;28;20488;-80
2021/03/13 09:13:19;;;;;;;33.95;5.78;;;;;;;;;;5037659;28;20465;-80
2021/03/13 09:15:45;;;;;;;32.25;4.93;;;;;;;;;;5045235;28;20530;-80
2021/03/13 09:18:14;;;;;;;16.92;3.05;;;;;;;;;;5047723;28;20041;-80
2021/03/13 09:20:41;;;;;;;19.02;3.85;;;;;;;;;;5045167;28;20120;-80
2021/03/13 09:23:07;;;;;;;20.65;4.22;;;;;;;;;;5049886;28;20037;-80
2021/03/13 09:25:34;;;;;;;23.38;3.75;;;;;;;;;;5045394;28;20051;-79
2021/03/13 09:28:01;;;;;;;28.60;4.43;;;;;;;;;;5043411;28;20103;-78
2021/03/13 09:30:27;;;;;;;18.95;3.25;;;;;;;;;;5043954;28;20037;-78
2021/03/13 09:32:54;;;;;;;25.80;4.25;;;;;;;;;;5048601;28;20506;-78
2021/03/13 09:35:22;;;;;;;19.23;5.15;;;;;;;;;;5043266;28;20437;-79
2021/03/13 09:37:49;;;;;;;16.48;3.17;;;;;;;;;;5036474;28;20083;-77
2021/03/13 09:40:18;;;;;;;25.27;4.15;;;;;;;;;;5039272;28;20041;-80
2021/03/13 09:42:45;;;;;;;23.13;4.45;;;;;;;;;;5034075;28;20041;-78
2021/03/13 09:45:13;;;;;;;18.02;3.42;;;;;;;;;;5037983;28;20049;-79
2021/03/13 09:47:42;;;;;;;21.10;3.83;;;;;;;;;;5039808;28;20041;-80
2021/03/13 09:50:16;;;;;;;23.73;4.28;;;;;;;;;;5037669;28;20037;-80
2021/03/13 09:52:42;;;;;;;;;;;;;;;;;;5038537;28;20112;-80
2021/03/13 09:55:11;;;;;;;25.52;3.70;;;;;;;;;;5043057;28;20627;-78
2021/03/13 09:57:38;;;;;;;19.80;3.58;;;;;;;;;;5034305;28;20409;-83
2021/03/13 10:00:09;;;;;;;20.50;3.35;;;;;;;;;;5035055;28;20583;-82
2021/03/13 10:02:37;;;;;;;18.50;3.30;;;;;;;;;;5042450;28;20037;-82
2021/03/13 10:05:05;;;;;;;22.67;4.80;;;;;;;;;;5038083;28;20045;-83
2021/03/13 10:07:31;;;;;;;24.10;4.13;;;;;;;;;;5045717;28;20044;-86
2021/03/13 10:09:59;;;;;;;17.65;3.50;;;;;;;;;;5035794;28;20095;-85
2021/03/13 10:12:31;;;;;;;30.15;5.15;;;;;;;;;;5042947;28;20156;-86
2021/03/13 10:15:10;;;;;;;22.20;4.55;;;;;;;;;;5042884;28;20049;-86
2021/03/13 10:17:50;;;;;;;26.77;4.57;;;;;;;;;;5033251;28;20323;-86
2021/03/13 10:20:16;;;;;;;30.00;4.18;;;;;;;;;;5043140;28;20477;-87
2021/03/13 10:22:43;;;;;;;28.25;5.25;;;;;;;;;;5059344;28;20489;-82
2021/03/13 10:25:09;;;;;;;30.52;4.55;;;;;;;;;;5038215;28;20049;-84
2021/03/13 10:27:36;;;;;;;27.95;4.68;;;;;;;;;;5034681;28;20473;-82
2021/03/13 10:30:05;;;;;;;29.15;4.22;;;;;;;;;;5043023;28;20482;-79
2021/03/13 10:32:32;;;;;;;30.13;4.85;;;;;;;;;;5036158;28;20136;-80
2021/03/13 10:35:07;;;;;;;25.95;3.85;;;;;;;;;;5030753;28;20045;-78
2021/03/13 10:37:36;;;;;;;25.02;5.00;;;;;;;;;;5051030;28;20410;-80
2021/03/13 10:40:03;;;;;;;35.33;4.13;;;;;;;;;;5050256;28;20041;-80
2021/03/13 10:42:34;;;;;;;25.58;4.57;;;;;;;;;;5046403;28;20045;-80
2021/03/13 10:45:12;;;;;;;30.92;5.10;;;;;;;;;;5065194;28;20487;-81
2021/03/13 10:47:38;;;;;;;19.83;5.57;;;;;;;;;;5048271;28;20488;-79
2021/03/13 10:50:05;;;;;;;22.40;4.47;;;;;;;;;;5051680;28;20131;-80
2021/03/13 10:52:31;;;;;;;21.50;2.65;;;;;;;;;;5049075;28;20045;-80
2021/03/13 10:54:58;;;;;;;14.18;2.47;;;;;;;;;;5049246;28;20381;-80
2021/03/13 10:57:24;;;;;;;13.80;1.77;;;;;;;;;;5044915;28;20052;-80
2021/03/13 10:59:50;;;;;;;17.10;2.30;;;;;;;;;;5044911;28;20037;-82
2021/03/13 11:02:17;;;;;;;22.33;2.97;;;;;;;;;;5040409;28;20496;-82
2021/03/13 11:04:44;;;;;;;20.70;2.92;;;;;;;;;;5041311;28;20126;-82
2021/03/13 11:07:10;;;;;;;20.80;3.30;;;;;;;;;;5039609;28;20037;-83
2021/03/13 11:09:37;;;;;;;26.13;3.88;;;;;;;;;;5041110;28;20042;-83
2021/03/13 11:12:04;;;;;;;31.42;4.25;;;;;;;;;;5057401;28;20503;-83
2021/03/13 11:14:30;;;;;;;18.98;3.60;;;;;;;;;;5041457;28;20029;-79
2021/03/13 11:16:56;;;;;;;26.70;4.28;;;;;;;;;;5039983;28;20034;-79
2021/03/13 11:19:25;;;;;;;29.88;4.45;;;;;;;;;;5039512;28;20053;-79
2021/03/13 11:21:51;;;;;;;22.30;3.30;;;;;;;;;;5044648;28;20465;-79
2021/03/13 11:24:18;;;;;;;21.70;3.17;;;;;;;;;;5044497;28;20051;-78
2021/03/13 11:26:45;;;;;;;28.70;3.35;;;;;;;;;;5045782;28;20488;-79
2021/03/13 11:29:11;;;;;;;21.88;4.38;;;;;;;;;;5044973;28;20069;-77
2021/03/13 11:31:38;;;;;;;30.45;3.95;;;;;;;;;;5039175;28;20096;-81
2021/03/13 11:34:05;;;;;;;20.27;4.00;;;;;;;;;;5045876;28;20041;-80
2021/03/13 11:36:31;;;;;;;25.23;4.07;;;;;;;;;;5036107;28;20042;-81
2021/03/13 11:38:57;;;;;;;19.13;3.17;;;;;;;;;;5039466;28;20067;-81
2021/03/13 11:41:24;;;;;;;15.65;3.78;;;;;;;;;;5045912;28;20033;-81
2021/03/13 11:43:50;;;;;;;20.33;4.10;;;;;;;;;;5035073;28;20059;-83
2021/03/13 11:46:17;;;;;;;25.35;6.93;;;;;;;;;;5041980;28;20132;-86
2021/03/13 11:48:43;;;;;;;21.70;3.65;;;;;;;;;;5032689;28;20041;-86
2021/03/13 11:51:12;;;;;;;23.60;3.80;;;;;;;;;;5035378;28;20038;-86
2021/03/13 11:53:38;;;;;;;25.10;3.60;;;;;;;;;;5037746;28;20061;-86
2021/03/13 11:56:05;;;;;;;21.52;4.28;;;;;;;;;;5040729;28;20037;-87
2021/03/13 11:58:31;;;;;;;19.48;3.70;;;;;;;;;;5051882;28;20049;-86
2021/03/13 12:00:58;;;;;;;21.58;3.30;;;;;;;;;;5039204;28;20133;-85
2021/03/13 12:03:24;;;;;;;18.23;3.28;;;;;;;;;;5051236;28;20043;-86
2021/03/13 12:05:51;;;;;;;18.67;3.92;;;;;;;;;;5045235;28;20148;-86
2021/03/13 12:08:17;;;;;;;21.52;3.50;;;;;;;;;;5047515;28;20170;-87
2021/03/13 12:10:44;;;;;;;19.17;3.47;;;;;;;;;;5044731;28;20098;-83
2021/03/13 12:13:10;;;;;;;16.83;3.90;;;;;;;;;;5051849;28;20474;-77
2021/03/13 12:15:37;;;;;;;20.35;3.97;;;;;;;;;;5040911;28;20061;-78
2021/03/13 12:18:03;;;;;;;19.45;3.10;;;;;;;;;;5033941;28;20051;-79
2021/03/13 12:20:29;;;;;;;17.25;3.88;;;;;;;;;;5038229;28;20409;-78
2021/03/13 12:22:56;;;;;;;20.30;3.83;;;;;;;;;;5033722;28;20049;-79
2021/03/13 12:25:22;;;;;;;22.65;4.20;;;;;;;;;;5033995;28;20055;-78
2021/03/13 12:27:49;;;;;;;22.90;4.13;;;;;;;;;;5040860;28;20041;-77
2021/03/13 12:30:15;;;;;;;22.00;3.92;;;;;;;;;;5047205;28;20212;-77
2021/03/13 12:32:42;;;;;;;11.13;2.90;;;;;;;;;;5037330;28;20373;-77
2021/03/13 12:35:10;;;;;;;13.32;3.10;;;;;;;;;;5038863;28;20087;-77
2021/03/13 12:37:37;;;;;;;20.05;4.38;;;;;;;;;;5039380;28;20049;-78
2021/03/13 12:40:04;;;;;;;17.38;3.28;;;;;;;;;;5041185;28;20040;-78
2021/03/13 12:42:31;;;;;;;13.98;2.92;;;;;;;;;;5041758;28;20060;-80
2021/03/13 12:44:57;;;;;;;23.75;5.32;;;;;;;;;;5045270;28;20144;-80
2021/03/13 12:47:24;;;;;;;19.85;2.92;;;;;;;;;;5042304;28;20041;-80
2021/03/13 12:49:50;;;;;;;11.63;1.55;;;;;;;;;;5042947;28;20041;-80
2021/03/13 12:52:17;;;;;;;13.00;1.98;;;;;;;;;;5044545;28;20098;-79
2021/03/13 12:54:43;;;;;;;11.20;2.88;;;;;;;;;;5043044;28;20052;-79
2021/03/13 12:57:09;;;;;;;19.77;2.75;;;;;;;;;;5046480;28;20098;-80
2021/03/13 12:59:36;;;;;;;18.27;3.33;;;;;;;;;;5046263;28;20048;-79
2021/03/13 13:02:02;;;;;;;21.55;4.32;;;;;;;;;;5038367;28;20041;-79
2021/03/13 13:04:30;;;;;;;24.08;4.13;;;;;;;;;;5043738;28;20040;-79
2021/03/13 13:06:58;;;;;;;18.63;4.13;;;;;;;;;;5055159;28;20120;-79
2021/03/13 13:09:24;;;;;;;21.30;3.60;;;;;;;;;;5041765;28;20048;-78
2021/03/13 13:11:50;;;;;;;19.45;3.33;;;;;;;;;;5040025;28;20041;-78
2021/03/13 13:14:17;;;;;;;15.60;2.88;;;;;;;;;;5034388;28;20106;-79
2021/03/13 13:16:44;;;;;;;22.95;4.15;;;;;;;;;;5034641;28;20044;-79
2021/03/13 13:19:10;;;;;;;25.15;3.65;;;;;;;;;;5035186;28;20111;-78
2021/03/13 13:21:36;;;;;;;19.10;3.63;;;;;;;;;;5038246;28;20125;-78
2021/03/13 13:24:03;;;;;;;18.10;3.55;;;;;;;;;;5039501;28;20095;-78
2021/03/13 13:26:29;;;;;;;22.70;3.58;;;;;;;;;;5039987;28;20136;-78
2021/03/13 13:28:56;;;;;;;21.70;3.42;;;;;;;;;;5036509;28;20099;-79
2021/03/13 13:31:22;;;;;;;23.63;3.92;;;;;;;;;;5037861;28;20055;-78
2021/03/13 13:33:48;;;;;;;31.15;5.65;;;;;;;;;;5039073;28;20124;-81
2021/03/13 13:36:17;;;;;;;23.45;3.45;;;;;;;;;;5044929;28;20037;-82
2021/03/13 13:38:43;;;;;;;22.90;3.58;;;;;;;;;;5045018;28;20051;-83
2021/03/13 13:41:10;;;;;;;21.73;4.10;;;;;;;;;;5045927;28;20103;-82
2021/03/13 13:43:36;;;;;;;25.33;3.95;;;;;;;;;;5044155;28;20413;-83
2021/03/13 13:46:02;;;;;;;16.95;4.45;;;;;;;;;;5037902;28;20049;-83
2021/03/13 13:48:29;;;;;;;19.48;3.15;;;;;;;;;;5040138;28;20388;-84
2021/03/13 13:50:55;;;;;;;18.13;4.20;;;;;;;;;;5039841;28;20037;-83
2021/03/13 13:53:21;;;;;;;10.55;2.40;;;;;;;;;;5045139;28;20042;-84
2021/03/13 13:55:49;;;;;;;20.80;3.60;;;;;;;;;;5043941;28;20041;-80
2021/03/13 13:58:16;;;;;;;17.33;3.45;;;;;;;;;;5061262;28;20099;-80
2021/03/13 14:00:42;;;;;;;26.67;2.80;;;;;;;;;;5044736;28;20041;-84
2021/03/13 14:03:09;;;;;;;26.45;3.22;;;;;;;;;;5041745;28;20049;-84
2021/03/13 14:05:35;;;;;;;19.52;3.53;;;;;;;;;;5041319;28;20419;-83
2021/03/13 14:08:02;;;;;;;16.15;3.67;;;;;;;;;;5038304;28;20127;-79
2021/03/13 14:10:28;;;;;;;10.50;1.60;;;;;;;;;;5042153;28;20120;-80
2021/03/13 14:12:55;;;;;;;9.82;1.60;;;;;;;;;;5044050;28;20041;-80
2021/03/13 14:15:22;;;;;;;9.07;1.35;;;;;;;;;;5041219;28;20055;-80
2021/03/13 14:17:48;;;;;;;8.43;1.15;;;;;;;;;;5042066;28;20044;-79
2021/03/13 14:20:14;;;;;;;11.68;1.77;;;;;;;;;;5041125;28;20124;-69
2021/03/13 14:22:41;;;;;;;15.38;1.70;;;;;;;;;;5043574;28;20155;-69
2021/03/13 14:25:07;;;;;;;11.60;1.85;;;;;;;;;;5043083;28;20048;-69
2021/03/13 14:27:39;;;;;;;18.02;2.20;;;;;;;;;;5042919;28;20041;-69
2021/03/13 14:30:07;;;;;;;8.52;1.60;;;;;;;;;;5042372;28;20057;-70
2021/03/13 14:32:33;;;;;;;11.93;1.40;;;;;;;;;;5040357;28;20143;-69
2021/03/13 14:34:59;;;;;;;12.90;2.10;;;;;;;;;;5041821;28;20480;-69